createdAt,value
2022-07-26T00:02:22.928Z,61.14
2022-07-26T00:04:54.899Z,60.96
2022-07-26T00:07:26.747Z,61.02
2022-07-26T00:10:09.340Z,61.09
2022-07-26T00:12:41.906Z,61.20
2022-07-26T00:15:14.413Z,61.10
2022-07-26T00:17:46.290Z,61.20
2022-07-26T00:20:18.084Z,61.15
2022-07-26T00:22:49.869Z,61.12
2022-07-26T00:25:22.208Z,60.98
2022-07-26T00:27:54.078Z,60.98
2022-07-26T00:30:25.977Z,60.93
2022-07-26T00:32:57.836Z,60.91
2022-07-26T00:35:29.845Z,60.89
2022-07-26T00:38:01.684Z,60.95
2022-07-26T00:40:34.013Z,61.01
2022-07-26T00:43:06.063Z,60.78
2022-07-26T00:45:37.938Z,60.80
2022-07-26T00:48:10.121Z,60.93
2022-07-26T00:50:42.073Z,60.66
2022-07-26T00:53:13.898Z,60.68
2022-07-26T00:55:45.828Z,60.75
2022-07-26T00:58:17.825Z,60.64
2022-07-26T01:00:50.100Z,60.40
2022-07-26T01:03:22.100Z,60.69
2022-07-26T01:05:54.443Z,60.50
2022-07-26T01:08:27.005Z,60.30
2022-07-26T01:10:59.484Z,60.42
2022-07-26T01:13:35.070Z,60.45
2022-07-26T01:16:08.634Z,60.28
2022-07-26T01:18:40.602Z,60.29
2022-07-26T01:21:14.355Z,60.40
2022-07-26T01:23:46.796Z,60.24
2022-07-26T01:26:18.704Z,60.14
2022-07-26T01:28:51.779Z,60.08
2022-07-26T01:31:23.673Z,60.06
2022-07-26T01:33:55.595Z,59.90
2022-07-26T01:36:27.438Z,60.03
2022-07-26T01:38:59.259Z,59.79
2022-07-26T01:41:38.125Z,59.79
2022-07-26T01:44:10.853Z,60.11
2022-07-26T01:46:42.987Z,60.21
2022-07-26T01:49:15.138Z,59.93
2022-07-26T01:51:47.055Z,59.87
2022-07-26T01:54:22.422Z,59.89
2022-07-26T01:56:56.618Z,59.95
2022-07-26T01:59:28.399Z,59.89
2022-07-26T02:02:00.282Z,59.95
2022-07-26T02:04:50.355Z,59.76
2022-07-26T02:07:22.293Z,59.60
2022-07-26T02:09:54.092Z,59.69
2022-07-26T02:12:26.210Z,59.78
2022-07-26T02:14:58.218Z,59.80
2022-07-26T02:17:30.164Z,59.80
2022-07-26T02:20:02.400Z,59.80
2022-07-26T02:22:34.216Z,59.60
2022-07-26T02:25:07.184Z,59.91
2022-07-26T02:27:38.993Z,60.33
2022-07-26T02:30:13.622Z,60.14
2022-07-26T02:32:47.835Z,59.83
2022-07-26T02:35:19.656Z,59.84
2022-07-26T02:37:51.615Z,59.91
2022-07-26T02:40:23.441Z,60.39
2022-07-26T02:42:55.235Z,60.70
2022-07-26T02:45:27.265Z,61.06
2022-07-26T02:47:59.488Z,60.94
2022-07-26T02:50:31.645Z,61.07
2022-07-26T02:53:03.462Z,60.57
2022-07-26T02:55:35.321Z,60.73
2022-07-26T02:58:07.140Z,60.48
2022-07-26T03:00:38.949Z,60.34
2022-07-26T03:03:14.216Z,60.96
2022-07-26T03:05:46.451Z,60.58
2022-07-26T03:08:18.307Z,60.31
2022-07-26T03:10:50.186Z,60.49
2022-07-26T03:13:22.289Z,60.35
2022-07-26T03:15:54.204Z,60.23
2022-07-26T03:18:26.139Z,60.13
2022-07-26T03:20:57.940Z,60.32
2022-07-26T03:23:33.508Z,60.17
2022-07-26T03:26:05.771Z,60.59
2022-07-26T03:28:39.609Z,60.68
2022-07-26T03:31:11.753Z,60.66
2022-07-26T03:33:43.733Z,60.74
2022-07-26T03:36:16.363Z,60.94
2022-07-26T03:38:48.176Z,61.16
2022-07-26T03:41:20.200Z,61.17
2022-07-26T03:43:52.000Z,61.36
2022-07-26T03:46:24.139Z,61.14
2022-07-26T03:48:56.415Z,61.64
2022-07-26T03:51:28.518Z,61.33
2022-07-26T03:54:00.441Z,61.76
2022-07-26T03:56:35.453Z,61.41
2022-07-26T03:59:09.076Z,61.67
2022-07-26T04:01:42.879Z,61.74
2022-07-26T04:04:17.837Z,61.90
2022-07-26T04:06:50.496Z,61.91
2022-07-26T04:09:22.461Z,61.95
2022-07-26T04:11:54.518Z,62.12
2022-07-26T04:14:26.302Z,61.91
2022-07-26T04:16:58.186Z,61.71
2022-07-26T04:19:30.163Z,61.87
2022-07-26T04:22:02.031Z,62.07
2022-07-26T04:24:33.860Z,62.32
2022-07-26T04:27:05.859Z,62.16
2022-07-26T04:29:37.651Z,62.12
2022-07-26T04:32:09.975Z,62.05
2022-07-26T04:34:41.785Z,61.89
2022-07-26T04:37:13.618Z,62.41
2022-07-26T04:39:45.452Z,62.44
2022-07-26T04:42:17.233Z,62.06
2022-07-26T04:44:49.036Z,62.03
2022-07-26T04:47:20.787Z,62.12
2022-07-26T04:49:52.570Z,62.26
2022-07-26T04:52:24.446Z,62.29
2022-07-26T04:54:56.252Z,62.12
2022-07-26T04:57:28.142Z,62.33
2022-07-26T05:00:20.277Z,62.49
2022-07-26T05:02:54.728Z,62.65
2022-07-26T05:05:30.845Z,63.02
2022-07-26T05:08:04.476Z,62.78
2022-07-26T05:10:40.616Z,62.67
2022-07-26T05:13:12.660Z,62.51
2022-07-26T05:15:44.508Z,62.37
2022-07-26T05:18:17.280Z,62.60
2022-07-26T05:20:51.711Z,62.63
2022-07-26T05:23:23.515Z,62.20
2022-07-26T05:25:55.493Z,62.30
2022-07-26T05:28:27.524Z,62.17
2022-07-26T05:30:59.352Z,62.20
2022-07-26T05:33:31.223Z,62.54
2022-07-26T05:36:03.045Z,63.46
2022-07-26T05:38:34.887Z,64.36
2022-07-26T05:41:07.322Z,65.61
2022-07-26T05:43:41.066Z,66.12
2022-07-26T05:46:16.090Z,66.59
2022-07-26T05:48:48.038Z,67.09
2022-07-26T05:51:19.984Z,67.21
2022-07-26T05:53:53.408Z,68.12
2022-07-26T05:56:25.240Z,69.86
2022-07-26T05:58:57.216Z,71.46
2022-07-26T06:01:32.518Z,72.29
2022-07-26T06:04:04.898Z,73.24
2022-07-26T06:06:36.938Z,73.92
2022-07-26T06:09:08.728Z,75.36
2022-07-26T06:11:40.493Z,75.59
2022-07-26T06:14:12.825Z,75.97
2022-07-26T06:16:44.974Z,76.50
2022-07-26T06:19:17.282Z,77.23
2022-07-26T06:21:49.150Z,77.81
2022-07-26T06:24:20.965Z,78.60
2022-07-26T06:26:57.090Z,79.22
2022-07-26T06:29:36.718Z,79.70
2022-07-26T06:32:09.402Z,80.79
2022-07-26T06:34:41.263Z,81.32
2022-07-26T06:37:13.082Z,81.89
2022-07-26T06:39:44.920Z,81.99
2022-07-26T06:42:16.680Z,82.77
2022-07-26T06:44:48.510Z,82.63
2022-07-26T06:47:20.312Z,82.68
2022-07-26T06:49:52.359Z,82.77
2022-07-26T06:52:24.298Z,82.90
2022-07-26T06:54:56.201Z,83.65
2022-07-26T06:57:28.418Z,83.29
2022-07-26T07:00:00.237Z,83.39
2022-07-26T07:02:32.013Z,83.33
2022-07-26T07:05:04.083Z,83.52
2022-07-26T07:07:37.854Z,84.18
2022-07-26T07:10:12.635Z,84.14
2022-07-26T07:12:45.015Z,84.68
2022-07-26T07:15:16.836Z,84.99
2022-07-26T07:17:49.159Z,85.21
2022-07-26T07:20:20.941Z,85.16
2022-07-26T07:22:52.880Z,85.40
2022-07-26T07:25:30.771Z,85.77
2022-07-26T07:28:03.134Z,85.76
2022-07-26T07:30:35.035Z,85.61
2022-07-26T07:33:09.520Z,85.31
2022-07-26T07:35:55.240Z,85.03
2022-07-26T07:38:27.047Z,85.17
2022-07-26T07:41:02.117Z,85.12
2022-07-26T07:43:34.174Z,85.09
2022-07-26T07:46:07.331Z,85.64
2022-07-26T07:48:46.600Z,85.32
2022-07-26T07:51:19.473Z,85.64
2022-07-26T07:53:56.708Z,85.41
2022-07-26T07:56:29.887Z,85.45
2022-07-26T07:59:02.007Z,85.45
2022-07-26T08:01:39.690Z,85.45
2022-07-26T08:04:12.618Z,84.70
2022-07-26T08:06:50.424Z,83.93
2022-07-26T08:09:23.506Z,84.21
2022-07-26T08:11:55.306Z,84.75
2022-07-26T08:14:27.132Z,84.96
2022-07-26T08:16:59.228Z,84.83
2022-07-26T08:19:41.927Z,85.13
2022-07-26T08:22:14.522Z,85.21
2022-07-26T08:24:47.099Z,85.42
2022-07-26T08:27:19.083Z,85.41
2022-07-26T08:29:50.948Z,85.37
2022-07-26T08:32:22.880Z,85.21
2022-07-26T08:34:54.793Z,85.52
2022-07-26T08:37:46.565Z,85.57
2022-07-26T08:40:18.750Z,85.32
2022-07-26T08:42:53.870Z,85.26
2022-07-26T08:45:26.924Z,85.16
2022-07-26T08:50:51.956Z,84.91
2022-07-26T08:53:24.059Z,84.67
2022-07-26T08:56:07.787Z,84.65
2022-07-26T08:58:40.994Z,82.57
2022-07-26T09:01:14.387Z,82.51
2022-07-26T09:03:47.043Z,81.75
2022-07-26T09:06:21.090Z,81.00
2022-07-26T09:08:54.498Z,81.03
2022-07-26T09:11:32.143Z,81.30
2022-07-26T09:14:06.670Z,80.84
2022-07-26T09:16:40.026Z,80.12
2022-07-26T09:19:23.893Z,79.87
2022-07-26T09:22:10.093Z,79.96
2022-07-26T09:24:44.334Z,80.26
2022-07-26T09:27:17.830Z,80.30
2022-07-26T09:29:51.611Z,80.15
2022-07-26T09:32:26.462Z,79.72
2022-07-26T09:35:44.183Z,79.86
2022-07-26T09:38:12.982Z,78.89
2022-07-26T09:40:50.463Z,79.30
2022-07-26T09:43:24.479Z,79.05
2022-07-26T09:46:11.060Z,79.42
2022-07-26T09:54:38.266Z,79.53
2022-07-26T09:57:10.180Z,79.88
2022-07-26T09:59:42.327Z,80.28
2022-07-26T10:02:15.119Z,80.09
2022-07-26T10:04:47.025Z,79.29
2022-07-26T10:07:19.589Z,79.26
2022-07-26T10:09:58.482Z,79.29
2022-07-26T10:12:34.386Z,78.86
2022-07-26T10:15:07.489Z,79.11
2022-07-26T10:17:43.331Z,79.27
2022-07-26T10:20:43.295Z,78.72
2022-07-26T10:23:43.223Z,78.51
2022-07-26T10:26:30.007Z,78.66
2022-07-26T10:29:25.813Z,78.17
2022-07-26T10:32:20.522Z,78.19
2022-07-26T10:34:52.425Z,77.53
2022-07-26T10:37:30.509Z,77.32
2022-07-26T10:40:25.667Z,77.13
2022-07-26T10:43:37.979Z,77.29
2022-07-26T10:46:28.262Z,76.96
2022-07-26T10:49:03.754Z,77.05
2022-07-26T12:04:06.946Z,63.56
2022-07-26T12:19:32.385Z,63.99
2022-07-26T12:33:02.390Z,62.46
2022-07-26T12:35:34.853Z,61.91
2022-07-26T12:38:03.623Z,61.27
2022-07-26T12:40:41.334Z,61.19
2022-07-26T12:43:10.887Z,61.75
2022-07-26T12:45:39.690Z,62.15
2022-07-26T12:48:11.200Z,62.56
2022-07-26T12:50:40.005Z,62.88
2022-07-26T12:53:14.649Z,63.02
2022-07-26T12:55:43.071Z,63.32
2022-07-26T12:58:11.504Z,63.08
2022-07-26T13:00:40.439Z,63.12
2022-07-26T13:03:08.988Z,62.47
2022-07-26T13:05:37.614Z,61.56
2022-07-26T13:08:06.367Z,60.91
2022-07-26T13:10:35.972Z,61.87
2022-07-26T13:13:04.832Z,63.21
2022-07-26T13:15:36.533Z,63.06
2022-07-26T13:18:07.778Z,62.68
2022-07-26T13:20:38.025Z,62.91
2022-07-26T13:23:11.248Z,62.86
2022-07-26T13:25:40.725Z,62.93
2022-07-26T13:28:09.643Z,62.88
2022-07-26T13:30:42.221Z,63.04
2022-07-26T13:33:12.039Z,63.03
2022-07-26T13:35:41.854Z,62.41
2022-07-26T13:38:10.375Z,63.12
2022-07-26T13:40:38.937Z,63.17
2022-07-26T13:43:07.382Z,62.63
2022-07-26T13:45:35.956Z,62.12
2022-07-26T13:48:05.244Z,61.56
2022-07-26T13:50:33.793Z,61.30
2022-07-26T13:53:02.278Z,61.76
2022-07-26T13:55:30.789Z,62.32
2022-07-26T13:57:59.195Z,61.67
2022-07-26T14:00:29.010Z,61.85
2022-07-26T14:02:59.477Z,61.46
2022-07-26T14:05:28.646Z,61.17
2022-07-26T14:07:57.061Z,61.43
2022-07-26T14:10:25.865Z,61.89
2022-07-26T14:12:54.421Z,61.19
2022-07-26T14:15:23.661Z,60.41
2022-07-26T14:17:52.679Z,60.02
2022-07-26T14:20:21.716Z,59.13
2022-07-26T14:22:53.006Z,58.83
2022-07-26T14:25:22.082Z,59.47
2022-07-26T14:27:56.732Z,59.71
2022-07-26T14:30:28.409Z,58.82
2022-07-26T14:32:56.835Z,59.07
2022-07-26T14:35:28.400Z,58.77
2022-07-26T14:37:57.067Z,58.81
2022-07-26T14:40:25.798Z,59.45
2022-07-26T14:42:54.519Z,59.51
2022-07-26T14:45:22.958Z,57.77
2022-07-26T14:47:51.373Z,58.79
2022-07-26T14:50:22.264Z,59.09
2022-07-26T14:52:50.678Z,58.84
2022-07-26T14:55:25.047Z,59.37
2022-07-26T14:57:54.923Z,60.16
2022-07-26T15:00:26.284Z,59.01
2022-07-26T15:02:54.796Z,59.90
2022-07-26T15:05:24.696Z,59.38
2022-07-26T15:07:53.353Z,59.35
2022-07-26T15:10:28.667Z,60.02
2022-07-26T15:12:57.565Z,60.11
2022-07-26T15:15:26.501Z,59.07
2022-07-26T15:17:55.293Z,58.42
2022-07-26T15:20:24.740Z,58.09
2022-07-26T15:22:53.725Z,57.88
2022-07-26T15:25:23.717Z,58.42
2022-07-26T15:27:52.704Z,58.75
2022-07-26T15:30:21.266Z,58.25
2022-07-26T15:32:53.957Z,58.71
2022-07-26T15:35:22.570Z,58.91
2022-07-26T15:37:51.210Z,58.56
2022-07-26T15:40:20.476Z,57.61
2022-07-26T15:42:51.400Z,56.46
2022-07-26T15:45:21.912Z,57.19
2022-07-26T15:47:57.385Z,57.73
2022-07-26T15:50:30.003Z,58.90
2022-07-26T15:52:58.473Z,57.41
2022-07-26T15:55:26.961Z,57.53
2022-07-26T15:57:55.605Z,57.33
2022-07-26T16:00:24.231Z,56.71
2022-07-26T16:02:52.736Z,55.87
2022-07-26T16:05:21.280Z,56.39
2022-07-26T16:07:49.898Z,56.79
2022-07-26T16:10:18.772Z,57.07
2022-07-26T16:12:47.492Z,56.57
2022-07-26T16:15:16.147Z,56.23
2022-07-26T16:17:44.561Z,55.95
2022-07-26T16:20:13.027Z,56.39
2022-07-26T16:22:41.502Z,56.22
2022-07-26T16:25:12.983Z,56.55
2022-07-26T16:27:43.125Z,56.52
2022-07-26T16:30:14.707Z,56.64
2022-07-26T16:32:43.213Z,56.48
2022-07-26T16:35:12.737Z,55.37
2022-07-26T16:37:41.637Z,54.28
2022-07-26T16:40:11.843Z,54.56
2022-07-26T16:42:40.328Z,54.74
2022-07-26T16:45:10.182Z,55.14
2022-07-26T16:47:38.630Z,54.36
2022-07-26T16:50:08.667Z,54.07
2022-07-26T16:52:37.146Z,54.14
2022-07-26T16:55:10.295Z,54.46
2022-07-26T16:57:39.042Z,54.37
2022-07-26T17:00:11.441Z,54.07
2022-07-26T17:02:39.946Z,53.88
2022-07-26T17:05:10.286Z,54.04
2022-07-26T17:07:38.728Z,54.40
2022-07-26T17:10:10.830Z,54.76
2022-07-26T17:12:40.309Z,54.94
2022-07-26T17:15:11.048Z,55.34
2022-07-26T17:17:40.102Z,55.67
2022-07-26T17:20:11.201Z,55.51
2022-07-26T17:22:39.589Z,55.85
2022-07-26T17:25:09.547Z,55.16
2022-07-26T17:27:38.122Z,55.19
2022-07-26T17:30:09.330Z,55.63
2022-07-26T17:32:37.881Z,55.91
2022-07-26T17:35:07.806Z,55.96
2022-07-26T17:37:36.746Z,56.24
2022-07-26T17:40:08.131Z,56.42
2022-07-26T17:42:37.358Z,56.90
2022-07-26T17:45:08.740Z,56.89
2022-07-26T17:47:37.226Z,56.88
2022-07-26T17:52:56.336Z,56.63
2022-07-26T17:55:25.097Z,56.74
2022-07-26T17:57:53.540Z,56.26
2022-07-26T18:00:23.289Z,55.58
2022-07-26T18:02:55.895Z,55.00
2022-07-26T18:05:32.254Z,54.76
2022-07-26T18:08:02.652Z,54.45
2022-07-26T18:10:31.240Z,54.04
2022-07-26T18:12:59.620Z,54.24
2022-07-26T18:15:28.094Z,54.59
2022-07-26T18:17:56.513Z,54.82
2022-07-26T18:20:25.182Z,54.81
2022-07-26T18:22:54.365Z,53.97
2022-07-26T18:25:23.147Z,54.71
2022-07-26T18:27:53.242Z,54.65
2022-07-26T18:30:21.711Z,54.83
2022-07-26T18:32:50.741Z,55.46
2022-07-26T18:35:19.389Z,56.43
2022-07-26T18:37:48.103Z,56.69
2022-07-26T18:40:16.597Z,57.60
2022-07-26T18:42:45.043Z,58.06
2022-07-26T18:45:13.840Z,58.49
2022-07-26T18:47:42.687Z,59.04
2022-07-26T18:50:12.562Z,59.20
2022-07-26T18:52:46.095Z,59.89
2022-07-26T18:55:14.959Z,60.65
2022-07-26T18:57:44.114Z,60.88
2022-07-26T19:00:16.336Z,61.11
2022-07-26T19:02:46.217Z,61.56
2022-07-26T19:05:16.061Z,61.97
2022-07-26T19:07:45.269Z,62.29
2022-07-26T19:10:14.768Z,62.49
2022-07-26T19:12:44.732Z,62.75
2022-07-26T19:15:13.126Z,63.03
2022-07-26T19:17:41.739Z,63.30
2022-07-26T19:20:10.871Z,63.44
2022-07-26T19:22:39.935Z,63.82
2022-07-26T19:25:10.246Z,63.86
2022-07-26T19:27:38.899Z,64.26
2022-07-26T19:30:10.095Z,64.34
2022-07-26T19:32:38.889Z,64.71
2022-07-26T19:35:09.642Z,64.76
2022-07-26T19:37:38.101Z,65.11
2022-07-26T19:40:08.819Z,65.17
2022-07-26T19:42:37.383Z,65.16
2022-07-26T19:45:07.395Z,65.41
2022-07-26T19:47:36.804Z,65.68
2022-07-26T19:50:08.511Z,65.61
2022-07-26T19:52:37.539Z,65.57
2022-07-26T19:55:07.801Z,66.12
2022-07-26T19:57:36.348Z,66.31
2022-07-26T20:00:07.006Z,66.47
2022-07-26T20:02:41.814Z,66.51
2022-07-26T20:05:11.583Z,66.64
2022-07-26T20:07:40.642Z,67.08
2022-07-26T20:10:09.723Z,67.17
2022-07-26T20:12:38.891Z,67.11
2022-07-26T20:15:09.256Z,67.53
2022-07-26T20:17:39.151Z,67.69
2022-07-26T20:20:10.358Z,67.98
2022-07-26T20:22:38.754Z,67.94
2022-07-26T20:25:09.283Z,68.13
2022-07-26T20:27:37.947Z,68.46
2022-07-26T20:30:09.317Z,69.00
2022-07-26T20:32:37.845Z,68.99
2022-07-26T20:35:08.304Z,69.64
2022-07-26T20:37:37.030Z,69.76
2022-07-26T20:40:09.329Z,70.28
2022-07-26T20:42:40.480Z,70.45
2022-07-26T20:45:13.284Z,70.40
2022-07-26T20:47:42.292Z,70.68
2022-07-26T20:50:11.727Z,70.61
2022-07-26T20:52:40.496Z,70.44
2022-07-26T20:55:10.209Z,69.14
2022-07-26T20:57:38.710Z,68.47
2022-07-26T21:00:10.777Z,68.41
2022-07-26T21:02:39.343Z,67.64
2022-07-26T21:05:09.432Z,66.55
2022-07-26T21:07:55.092Z,66.56
2022-07-26T21:10:26.981Z,65.80
2022-07-26T21:12:59.649Z,65.80
2022-07-26T21:15:28.440Z,65.54
2022-07-26T21:17:57.297Z,65.28
2022-07-26T21:20:25.668Z,65.00
2022-07-26T21:23:03.618Z,65.00
2022-07-26T21:25:41.596Z,65.12
2022-07-26T21:28:10.007Z,64.79
2022-07-26T21:30:38.535Z,64.68
2022-07-26T21:33:07.293Z,64.89
2022-07-26T21:35:35.836Z,64.66
2022-07-26T21:38:04.245Z,64.47
2022-07-26T21:40:32.645Z,64.62
2022-07-26T21:43:01.099Z,64.64
2022-07-26T21:45:29.556Z,64.76
2022-07-26T21:47:57.985Z,64.88
2022-07-26T21:50:27.276Z,65.01
2022-07-26T21:52:55.633Z,64.99
2022-07-26T21:55:23.960Z,65.25
2022-07-26T21:57:52.349Z,65.36
2022-07-26T22:00:20.712Z,65.53
2022-07-26T22:02:49.122Z,65.73
2022-07-26T22:05:37.441Z,65.62
2022-07-26T22:08:10.764Z,65.97
2022-07-26T22:10:44.260Z,66.18
2022-07-26T22:13:13.969Z,66.23
2022-07-26T22:15:43.275Z,66.46
2022-07-26T22:18:12.013Z,66.66
2022-07-26T22:20:41.263Z,66.60
2022-07-26T22:23:11.340Z,66.61
2022-07-26T22:25:40.154Z,66.66
2022-07-26T22:28:10.173Z,66.61
2022-07-26T22:30:39.674Z,66.59
2022-07-26T22:33:11.184Z,66.75
2022-07-26T22:35:39.658Z,66.69
2022-07-26T22:38:10.654Z,66.92
2022-07-26T22:40:40.854Z,66.98
2022-07-26T22:43:10.279Z,67.04
2022-07-26T22:45:38.724Z,66.99
2022-07-26T22:48:08.996Z,67.29
2022-07-26T22:50:38.497Z,67.45
2022-07-26T22:53:07.186Z,67.53
2022-07-26T22:55:35.721Z,67.58
2022-07-26T22:58:04.243Z,67.79
2022-07-26T23:00:32.771Z,67.79
2022-07-26T23:03:01.267Z,67.74
2022-07-26T23:05:45.264Z,68.00
2022-07-26T23:11:04.820Z,68.44
2022-07-26T23:13:33.808Z,68.76
2022-07-26T23:16:02.532Z,68.88
2022-07-26T23:18:32.821Z,69.12
2022-07-26T23:21:01.828Z,69.32
2022-07-26T23:23:32.362Z,69.23
2022-07-26T23:26:01.352Z,69.53
2022-07-26T23:28:36.981Z,69.74
2022-07-26T23:31:08.408Z,69.96
2022-07-26T23:33:50.755Z,70.14
2022-07-26T23:36:25.992Z,69.92
2022-07-26T23:38:55.914Z,70.33
2022-07-26T23:41:24.905Z,70.35
2022-07-26T23:43:54.325Z,70.54
2022-07-26T23:46:23.727Z,70.46
2022-07-26T23:48:52.941Z,70.77
2022-07-26T23:51:22.539Z,70.84
2022-07-26T23:53:51.290Z,71.10
2022-07-26T23:56:19.881Z,71.30
2022-07-26T23:58:48.646Z,71.44
